South Broadway, Washington
Current Conditions -  °F | °C
As of 10:08 AM on Saturday 20 Dec 2014 (Local Time) from KYKM Reporting Station
Haze Haze  
Wind Chill: 41°   Ceiling: 1100
Heat Index: 41°   Visibility: 4mi
Dew Point: 38°   Wind: 0mph
Humidity: 89%   Direction: NA
Pressure: 29.76"   Gusts: NA
Location:  46.562°N, 120.899°W
Report Text: KYKM 201808Z 00000KT 4SM BR SCT003 BKN011 OVC050 05/03 A2976 RMK AO2 T00500033
Loading
Personal Weather Stations






























Interactive Weather Map New forecast layout! Learn more

10-Day Weather Forecast

Advertisements
Track Severe Weather on mobile